La Tontouta International Airport
NWWW : now visible

Airfield :











YOU CAN JOIN US ON...

 
LOGIN :

Register | Disclaimer

   EN    FR    IT 

 









Legend :    VFR   Marginal VFR   IFR   Intensive IFR   Very Intensive IFR
Visi :
Ceiling :
>= 8 km
>= 3000ft
5 to 8 km
1000 to 3000 ft
1500m to 5 km
500 to 1000 ft
800 to 1500m
200 to 500 ft
< 800m
< 200 ft
Symbols :   Thunderstorms  Fog  Heavy snow  Heavy precipitations  Wind > 20 kt






- Airport Elevation : 52 ft
- IATA code : NOU


NWWW - La Tontouta International

CURRENT METAR :
  • 050800Z AUTO VRB03KT 9999 FEW046 25/22 Q1008 TEMPO SHRA FEW025CB

EXPIRED METARs :
  • 050730Z AUTO 14004KT 9999 NSC 25/23 Q1008 TEMPO SHRA FEW025CB
  • 050700Z AUTO 08001KT 9999 NSC 25/23 Q1008 TEMPO VRB15KT 3000 TSRA FEW025CB
  • 050630Z AUTO VRB03KT 9999 FEW048 BKN160 BKN190 26/23 Q1008 TEMPO VRB15KT 3000 TSRA FEW025CB
  • 050600Z AUTO VRB02KT 9999 SCT047/// BKN060/// ///TCU 26/23 Q1008 TEMPO SHRA FEW025CB
  • 050530Z AUTO 29006KT 260V330 9999 BKN047/// BKN056/// OVC066/// ///TCU 26/23 Q1008 TEMPO SHRA FEW025CB

TAF TAF NWWW
Valid from the 05 at 06:00 until the 06 at 06:00 UTC


050500Z 0506/0606 VRB02KT 9999 SCT035 BKN055
TEMPO 0506/0509 SHRA FEW025CB
PROB40
TEMPO 0506/0508 VRB15KT 3000 TSRA SCT020CB
PROB40
TEMPO 0509/0518 SHRA FEW025CB
TEMPO 0600/0606 2500 TSRA SCT020CB
NFFF FIR / Oceania



MET'MAP, your aeronautical weather chart ! - Copyright ORBIFLY December 2007 - Disclaimer

ORBIFLY MET'MAP TEAM :

Programming & Development : Alexandra Zaïnal
Concept & original design : Baudouin d'Aumeries
Assistance for programming : Marc-Olivier Méhu
Technical & hardware support : Manuel Goepfert

Contact : metmap@orbifly.com




SOURCES & CREDITS :

   NOAA       Earth
Advisory